Eftichia — C6ZI4 — position and weather

sailwx.info

Track history (hours):
 
Tides and Currents Weather Stations Pressure Air Temp Water Temp Dewpoint Dewpoint Depression Visibility Wind Speed Wind Dir Waves Ship Positions

Eftichia

Last reported at 2017-Aug-13 07:35 UTC. Time now 2017-Aug-19 03:43 UTC.
Position N 29°53' W 089°57'.

Length 181 m; draft 6.1 m.

Type: Cargo ship. MMSI: 311033882.

Date/timePositionNaut miles runAvg speedWind from/ knotsBaromVisibWave heightAir tempDewpointWater temp
2017-Aug-13 07:35N 29°53' W 089°57'0 0.1
2017-Aug-13 07:29N 29°53' W 089°57'0 0.0
2017-Aug-13 06:59N 29°53' W 089°57'  
2017-Aug-03 16:56N 25°20' W 079°36'6 9.2
2017-Aug-03 16:16N 25°27' W 079°36'2 9.1
2017-Aug-03 16:00N 25°29' W 079°35'5 9.0
2017-Aug-03 15:30N 25°33' W 079°35'4 8.8
2017-Aug-03 15:00N 25°38' W 079°34'9 8.7
2017-Aug-03 14:00N 25°47' W 079°33'5 9.9
2017-Aug-03 13:30N 25°51' W 079°32'510.1
2017-Aug-03 13:00N 25°56' W 079°32'4 8.5
2017-Aug-03 12:30N 26°01' W 079°31'4 8.7
2017-Aug-03 12:00N 26°05' W 079°30'4 8.9
2017-Aug-03 11:30N 26°09' W 079°30'5 9.1
2017-Aug-03 11:00N 26°14' W 079°29'  
Track history (hours):
 
Tides and Currents Weather Stations Pressure Air Temp Water Temp Dewpoint Dewpoint Depression Visibility Wind Speed Wind Dir Waves Ship Positions

Eftichia

Last reported at 2017-Aug-13 07:35 UTC. Time now 2017-Aug-19 03:43 UTC.
Position N 29°53' W 089°57'.

Length 181 m; draft 6.1 m.

Type: Cargo ship. MMSI: 311033882.

Date/timePositionNaut miles runAvg speedWind from/ knotsBaromVisibWave heightAir tempDewpointWater temp
2017-Aug-13 07:35N 29°53' W 089°57'0 0.1
2017-Aug-13 07:29N 29°53' W 089°57'0 0.0
2017-Aug-13 06:59N 29°53' W 089°57'  
2017-Aug-03 16:56N 25°20' W 079°36'6 9.2
2017-Aug-03 16:16N 25°27' W 079°36'2 9.1
2017-Aug-03 16:00N 25°29' W 079°35'5 9.0
2017-Aug-03 15:30N 25°33' W 079°35'4 8.8
2017-Aug-03 15:00N 25°38' W 079°34'9 8.7
2017-Aug-03 14:00N 25°47' W 079°33'5 9.9
2017-Aug-03 13:30N 25°51' W 079°32'510.1
2017-Aug-03 13:00N 25°56' W 079°32'4 8.5
2017-Aug-03 12:30N 26°01' W 079°31'4 8.7
2017-Aug-03 12:00N 26°05' W 079°30'4 8.9
2017-Aug-03 11:30N 26°09' W 079°30'5 9.1
2017-Aug-03 11:00N 26°14' W 079°29'  

Dump ship's entire track history